sensor_id;sensor_type;location;lat;lon;timestamp;pressure;altitude;pressure_sealevel;temperature;humidity
15529;BME280;7866;52.280;9.500;2022-10-22T00:00:41;99776.72;;;15.30;95.48
15529;BME280;7866;52.280;9.500;2022-10-22T00:05:42;99778.19;;;15.33;95.47
15529;BME280;7866;52.280;9.500;2022-10-22T00:10:45;99781.91;;;15.32;95.68
15529;BME280;7866;52.280;9.500;2022-10-22T00:15:47;99801.44;;;15.27;95.84
15529;BME280;7866;52.280;9.500;2022-10-22T00:20:49;99800.19;;;15.30;96.37
15529;BME280;7866;52.280;9.500;2022-10-22T00:25:53;99804.19;;;15.20;96.15
15529;BME280;7866;52.280;9.500;2022-10-22T00:30:55;99800.19;;;15.23;96.20
15529;BME280;7866;52.280;9.500;2022-10-22T00:35:57;99799.59;;;15.21;95.96
15529;BME280;7866;52.280;9.500;2022-10-22T00:41:00;99785.31;;;15.14;95.90
15529;BME280;7866;52.280;9.500;2022-10-22T00:46:02;99792.38;;;15.08;96.33
15529;BME280;7866;52.280;9.500;2022-10-22T00:51:05;99785.13;;;15.09;96.54
15529;BME280;7866;52.280;9.500;2022-10-22T00:56:10;99803.13;;;15.15;96.62
15529;BME280;7866;52.280;9.500;2022-10-22T01:01:15;99806.69;;;15.09;96.74
15529;BME280;7866;52.280;9.500;2022-10-22T01:06:22;99821.59;;;15.18;96.58
15529;BME280;7866;52.280;9.500;2022-10-22T01:11:33;99811.88;;;15.17;95.91
15529;BME280;7866;52.280;9.500;2022-10-22T01:16:39;99792.56;;;15.07;96.40
15529;BME280;7866;52.280;9.500;2022-10-22T01:21:44;99796.94;;;15.08;96.16
15529;BME280;7866;52.280;9.500;2022-10-22T01:27:00;99787.81;;;15.09;96.32
15529;BME280;7866;52.280;9.500;2022-10-22T01:32:08;99796.56;;;15.04;96.50
15529;BME280;7866;52.280;9.500;2022-10-22T01:37:13;99796.13;;;15.00;96.25
15529;BME280;7866;52.280;9.500;2022-10-22T01:42:15;99800.66;;;15.07;96.71
15529;BME280;7866;52.280;9.500;2022-10-22T01:47:26;99799.84;;;15.06;96.69
15529;BME280;7866;52.280;9.500;2022-10-22T01:52:42;99796.09;;;15.07;96.68
15529;BME280;7866;52.280;9.500;2022-10-22T01:57:52;99794.03;;;15.09;96.25
15529;BME280;7866;52.280;9.500;2022-10-22T02:03:04;99779.09;;;15.07;95.79
15529;BME280;7866;52.280;9.500;2022-10-22T02:08:10;99780.97;;;15.06;96.35
15529;BME280;7866;52.280;9.500;2022-10-22T02:13:15;99790.31;;;15.03;96.09
15529;BME280;7866;52.280;9.500;2022-10-22T02:18:22;99789.28;;;15.05;96.75
15529;BME280;7866;52.280;9.500;2022-10-22T02:23:26;99790.31;;;15.03;96.21
15529;BME280;7866;52.280;9.500;2022-10-22T02:28:31;99795.69;;;15.03;95.93
15529;BME280;7866;52.280;9.500;2022-10-22T02:33:40;99805.25;;;15.06;96.13
15529;BME280;7866;52.280;9.500;2022-10-22T02:38:45;99791.97;;;15.05;95.92
15529;BME280;7866;52.280;9.500;2022-10-22T02:43:49;99794.28;;;15.01;95.64
15529;BME280;7866;52.280;9.500;2022-10-22T02:48:53;99798.84;;;15.00;95.83
15529;BME280;7866;52.280;9.500;2022-10-22T02:53:54;99806.94;;;15.00;95.79
15529;BME280;7866;52.280;9.500;2022-10-22T02:58:56;99804.41;;;14.99;95.41
15529;BME280;7866;52.280;9.500;2022-10-22T03:03:59;99794.03;;;15.02;95.22
15529;BME280;7866;52.280;9.500;2022-10-22T03:09:00;99804.00;;;15.02;94.99
15529;BME280;7866;52.280;9.500;2022-10-22T03:14:02;99812.09;;;15.09;94.88
15529;BME280;7866;52.280;9.500;2022-10-22T03:19:05;99815.78;;;15.14;94.16
15529;BME280;7866;52.280;9.500;2022-10-22T03:24:10;99810.63;;;15.06;94.45
15529;BME280;7866;52.280;9.500;2022-10-22T03:29:14;99817.66;;;15.14;94.21
15529;BME280;7866;52.280;9.500;2022-10-22T03:34:17;99813.97;;;15.08;93.93
15529;BME280;7866;52.280;9.500;2022-10-22T03:39:19;99815.38;;;15.11;93.85
15529;BME280;7866;52.280;9.500;2022-10-22T03:44:22;99822.25;;;15.07;94.04
15529;BME280;7866;52.280;9.500;2022-10-22T03:49:26;99813.56;;;15.05;94.20
15529;BME280;7866;52.280;9.500;2022-10-22T03:54:27;99816.84;;;15.07;94.13
15529;BME280;7866;52.280;9.500;2022-10-22T03:59:33;99833.03;;;15.07;93.72
15529;BME280;7866;52.280;9.500;2022-10-22T04:04:37;99829.09;;;15.02;93.71
15529;BME280;7866;52.280;9.500;2022-10-22T04:09:39;99834.72;;;15.01;93.72
15529;BME280;7866;52.280;9.500;2022-10-22T04:14:41;99842.59;;;15.02;93.85
15529;BME280;7866;52.280;9.500;2022-10-22T04:19:43;99852.97;;;14.99;94.10
15529;BME280;7866;52.280;9.500;2022-10-22T04:24:45;99833.44;;;15.03;93.77
15529;BME280;7866;52.280;9.500;2022-10-22T04:29:47;99869.56;;;15.02;93.68
15529;BME280;7866;52.280;9.500;2022-10-22T04:34:50;99862.91;;;15.05;93.76
15529;BME280;7866;52.280;9.500;2022-10-22T04:39:51;99859.81;;;15.08;93.04
15529;BME280;7866;52.280;9.500;2022-10-22T04:44:53;99865.81;;;15.03;93.30
15529;BME280;7866;52.280;9.500;2022-10-22T04:49:56;99849.44;;;15.05;93.34
15529;BME280;7866;52.280;9.500;2022-10-22T04:54:58;99856.47;;;14.99;92.93
15529;BME280;7866;52.280;9.500;2022-10-22T04:59:59;99839.88;;;15.02;92.64
15529;BME280;7866;52.280;9.500;2022-10-22T05:05:03;99840.53;;;14.98;92.79
15529;BME280;7866;52.280;9.500;2022-10-22T05:10:05;99852.78;;;14.94;92.87
15529;BME280;7866;52.280;9.500;2022-10-22T05:15:08;99858.16;;;15.00;92.88
15529;BME280;7866;52.280;9.500;2022-10-22T05:20:11;99854.00;;;14.98;92.32
15529;BME280;7866;52.280;9.500;2022-10-22T05:25:13;99855.25;;;14.95;92.34
15529;BME280;7866;52.280;9.500;2022-10-22T05:30:14;99860.63;;;14.95;92.52
15529;BME280;7866;52.280;9.500;2022-10-22T05:35:17;99860.63;;;15.02;92.09
15529;BME280;7866;52.280;9.500;2022-10-22T05:40:19;99869.97;;;14.99;91.36
15529;BME280;7866;52.280;9.500;2022-10-22T05:45:21;99871.66;;;14.94;91.64
15529;BME280;7866;52.280;9.500;2022-10-22T05:50:24;99877.03;;;15.00;91.45
15529;BME280;7866;52.280;9.500;2022-10-22T05:55:25;99876.63;;;14.90;91.08
15529;BME280;7866;52.280;9.500;2022-10-22T06:00:27;99887.19;;;14.98;91.36
15529;BME280;7866;52.280;9.500;2022-10-22T06:05:33;99893.22;;;14.94;90.73
15529;BME280;7866;52.280;9.500;2022-10-22T06:10:36;99899.03;;;14.84;91.26
15529;BME280;7866;52.280;9.500;2022-10-22T06:15:40;99908.97;;;14.90;91.12
15529;BME280;7866;52.280;9.500;2022-10-22T06:20:43;99906.91;;;14.92;91.14
15529;BME280;7866;52.280;9.500;2022-10-22T06:25:54;99915.63;;;14.94;91.01
15529;BME280;7866;52.280;9.500;2022-10-22T06:30:57;99911.66;;;15.03;90.70
15529;BME280;7866;52.280;9.500;2022-10-22T06:36:05;99923.50;;;15.02;90.67
15529;BME280;7866;52.280;9.500;2022-10-22T06:41:09;99938.44;;;15.05;90.38
15529;BME280;7866;52.280;9.500;2022-10-22T06:46:12;99950.88;;;14.99;90.66
15529;BME280;7866;52.280;9.500;2022-10-22T06:51:16;99959.81;;;14.93;90.46
15529;BME280;7866;52.280;9.500;2022-10-22T06:56:20;99962.91;;;14.90;90.89
15529;BME280;7866;52.280;9.500;2022-10-22T07:01:24;99972.03;;;14.89;91.25
15529;BME280;7866;52.280;9.500;2022-10-22T07:06:28;99977.22;;;14.97;90.91
15529;BME280;7866;52.280;9.500;2022-10-22T07:11:35;99984.47;;;15.03;90.51
15529;BME280;7866;52.280;9.500;2022-10-22T07:16:38;99989.47;;;15.07;90.11
15529;BME280;7866;52.280;9.500;2022-10-22T07:21:43;99988.22;;;15.16;90.33
15529;BME280;7866;52.280;9.500;2022-10-22T07:26:45;99989.88;;;15.23;89.72
15529;BME280;7866;52.280;9.500;2022-10-22T07:31:47;99992.78;;;15.22;89.69
15529;BME280;7866;52.280;9.500;2022-10-22T07:36:50;99992.59;;;15.17;90.39
15529;BME280;7866;52.280;9.500;2022-10-22T07:41:51;99991.53;;;15.31;90.37
15529;BME280;7866;52.280;9.500;2022-10-22T07:46:53;99998.59;;;15.45;89.56
15529;BME280;7866;52.280;9.500;2022-10-22T07:51:56;100004.41;;;15.49;89.40
15529;BME280;7866;52.280;9.500;2022-10-22T07:56:58;100013.72;;;15.40;89.24
15529;BME280;7866;52.280;9.500;2022-10-22T08:01:59;100022.47;;;15.48;89.63
15529;BME280;7866;52.280;9.500;2022-10-22T08:07:03;100024.72;;;15.58;89.25
15529;BME280;7866;52.280;9.500;2022-10-22T08:12:05;100031.16;;;15.64;89.05
15529;BME280;7866;52.280;9.500;2022-10-22T08:17:07;100028.06;;;15.67;88.95
15529;BME280;7866;52.280;9.500;2022-10-22T08:22:10;100036.34;;;15.79;88.57
15529;BME280;7866;52.280;9.500;2022-10-22T08:27:12;100037.97;;;15.99;87.15
15529;BME280;7866;52.280;9.500;2022-10-22T08:32:13;100030.84;;;16.18;86.79
15529;BME280;7866;52.280;9.500;2022-10-22T08:37:16;100040.00;;;16.24;86.26
15529;BME280;7866;52.280;9.500;2022-10-22T08:42:37;100045.81;;;16.21;86.76
15529;BME280;7866;52.280;9.500;2022-10-22T08:47:53;100051.34;;;16.39;86.58
15529;BME280;7866;52.280;9.500;2022-10-22T08:53:03;100047.81;;;16.39;86.51
15529;BME280;7866;52.280;9.500;2022-10-22T08:58:12;100061.31;;;16.45;86.27
15529;BME280;7866;52.280;9.500;2022-10-22T09:03:35;100058.78;;;16.50;86.19
15529;BME280;7866;52.280;9.500;2022-10-22T09:08:41;100063.09;;;16.65;86.15
15529;BME280;7866;52.280;9.500;2022-10-22T09:13:44;100062.00;;;16.79;85.66
15529;BME280;7866;52.280;9.500;2022-10-22T09:18:57;100065.47;;;16.93;85.60
15529;BME280;7866;52.280;9.500;2022-10-22T09:24:05;100067.09;;;17.01;84.77
15529;BME280;7866;52.280;9.500;2022-10-22T09:29:16;100068.75;;;17.02;85.46
15529;BME280;7866;52.280;9.500;2022-10-22T09:34:19;100066.72;;;17.22;85.11
15529;BME280;7866;52.280;9.500;2022-10-22T09:39:25;100069.28;;;17.42;84.76
15529;BME280;7866;52.280;9.500;2022-10-22T09:44:26;100077.19;;;17.68;84.10
15529;BME280;7866;52.280;9.500;2022-10-22T09:49:29;100080.28;;;17.72;83.75
15529;BME280;7866;52.280;9.500;2022-10-22T09:54:40;100074.03;;;17.71;83.88
15529;BME280;7866;52.280;9.500;2022-10-22T09:59:43;100079.34;;;17.85;84.04
15529;BME280;7866;52.280;9.500;2022-10-22T10:04:49;100087.34;;;17.80;83.50
15529;BME280;7866;52.280;9.500;2022-10-22T10:09:53;100094.41;;;17.81;83.80
15529;BME280;7866;52.280;9.500;2022-10-22T10:15:01;100093.66;;;17.92;83.89
15529;BME280;7866;52.280;9.500;2022-10-22T10:20:19;100091.34;;;18.14;83.47
15529;BME280;7866;52.280;9.500;2022-10-22T10:25:31;100092.06;;;18.28;82.50
15529;BME280;7866;52.280;9.500;2022-10-22T10:30:40;100100.38;;;18.26;82.21
15529;BME280;7866;52.280;9.500;2022-10-22T10:35:49;100108.13;;;18.04;83.20
15529;BME280;7866;52.280;9.500;2022-10-22T10:41:00;100109.84;;;17.98;83.43
15529;BME280;7866;52.280;9.500;2022-10-22T10:46:08;100121.69;;;18.04;83.39
15529;BME280;7866;52.280;9.500;2022-10-22T10:56:41;100115.88;;;18.19;83.43
15529;BME280;7866;52.280;9.500;2022-10-22T11:07:15;100126.28;;;18.04;83.71
15529;BME280;7866;52.280;9.500;2022-10-22T11:12:23;100125.16;;;18.30;81.85
15529;BME280;7866;52.280;9.500;2022-10-22T11:17:32;100129.16;;;18.45;81.56
15529;BME280;7866;52.280;9.500;2022-10-22T11:22:38;100131.81;;;18.52;80.57
15529;BME280;7866;52.280;9.500;2022-10-22T11:27:46;100131.75;;;18.77;79.68
15529;BME280;7866;52.280;9.500;2022-10-22T11:32:52;100138.38;;;18.81;78.47
15529;BME280;7866;52.280;9.500;2022-10-22T11:37:56;100138.94;;;19.02;76.87
15529;BME280;7866;52.280;9.500;2022-10-22T11:43:03;100137.16;;;18.95;77.85
15529;BME280;7866;52.280;9.500;2022-10-22T11:48:11;100135.91;;;18.80;78.14
15529;BME280;7866;52.280;9.500;2022-10-22T11:53:20;100140.59;;;19.03;77.03
15529;BME280;7866;52.280;9.500;2022-10-22T11:58:34;100142.72;;;19.01;76.32
15529;BME280;7866;52.280;9.500;2022-10-22T12:03:43;100140.13;;;18.76;77.23
15529;BME280;7866;52.280;9.500;2022-10-22T12:08:51;100140.47;;;18.61;77.00
15529;BME280;7866;52.280;9.500;2022-10-22T12:14:17;100140.53;;;18.54;77.10
15529;BME280;7866;52.280;9.500;2022-10-22T12:19:25;100139.53;;;18.67;77.74
15529;BME280;7866;52.280;9.500;2022-10-22T12:24:30;100133.09;;;18.68;77.19
15529;BME280;7866;52.280;9.500;2022-10-22T12:29:34;100137.00;;;18.90;76.68
15529;BME280;7866;52.280;9.500;2022-10-22T12:34:44;100134.53;;;18.70;76.84
15529;BME280;7866;52.280;9.500;2022-10-22T12:39:46;100133.97;;;18.62;77.37
15529;BME280;7866;52.280;9.500;2022-10-22T12:44:54;100127.59;;;18.75;77.26
15529;BME280;7866;52.280;9.500;2022-10-22T12:49:56;100122.06;;;19.00;76.15
15529;BME280;7866;52.280;9.500;2022-10-22T12:54:58;100126.69;;;18.99;76.22
15529;BME280;7866;52.280;9.500;2022-10-22T13:00:01;100133.25;;;18.91;76.23
15529;BME280;7866;52.280;9.500;2022-10-22T13:05:13;100150.59;;;18.72;75.97
15529;BME280;7866;52.280;9.500;2022-10-22T13:10:19;100152.75;;;18.45;78.19
15529;BME280;7866;52.280;9.500;2022-10-22T13:15:38;100147.00;;;18.16;79.13
15529;BME280;7866;52.280;9.500;2022-10-22T13:20:49;100138.16;;;18.03;79.53
15529;BME280;7866;52.280;9.500;2022-10-22T13:25:57;100144.31;;;17.91;79.17
15529;BME280;7866;52.280;9.500;2022-10-22T13:31:07;100142.66;;;17.90;78.53
15529;BME280;7866;52.280;9.500;2022-10-22T13:36:12;100148.97;;;17.84;78.50
15529;BME280;7866;52.280;9.500;2022-10-22T13:41:19;100154.00;;;17.74;78.19
15529;BME280;7866;52.280;9.500;2022-10-22T13:46:22;100161.56;;;17.65;77.58
15529;BME280;7866;52.280;9.500;2022-10-22T13:51:29;100159.53;;;17.61;78.04
15529;BME280;7866;52.280;9.500;2022-10-22T13:56:34;100154.91;;;17.68;77.92
15529;BME280;7866;52.280;9.500;2022-10-22T14:01:37;100163.63;;;17.70;78.00
15529;BME280;7866;52.280;9.500;2022-10-22T14:06:39;100156.53;;;17.76;76.77
15529;BME280;7866;52.280;9.500;2022-10-22T14:11:41;100155.88;;;17.80;76.79
15529;BME280;7866;52.280;9.500;2022-10-22T14:16:44;100163.72;;;17.88;76.48
15529;BME280;7866;52.280;9.500;2022-10-22T14:21:45;100168.31;;;18.13;76.42
15529;BME280;7866;52.280;9.500;2022-10-22T14:26:48;100172.06;;;18.12;75.68
15529;BME280;7866;52.280;9.500;2022-10-22T14:31:51;100168.97;;;17.83;76.38
15529;BME280;7866;52.280;9.500;2022-10-22T14:36:53;100175.78;;;17.61;76.87
15529;BME280;7866;52.280;9.500;2022-10-22T14:41:54;100174.47;;;17.38;77.31
15529;BME280;7866;52.280;9.500;2022-10-22T14:46:58;100178.47;;;17.36;77.46
15529;BME280;7866;52.280;9.500;2022-10-22T14:51:59;100188.44;;;17.35;76.48
15529;BME280;7866;52.280;9.500;2022-10-22T14:57:01;100179.47;;;17.35;76.59
15529;BME280;7866;52.280;9.500;2022-10-22T15:02:04;100197.19;;;17.37;76.53
15529;BME280;7866;52.280;9.500;2022-10-22T15:07:06;100197.47;;;17.22;76.43
15529;BME280;7866;52.280;9.500;2022-10-22T15:12:08;100198.09;;;17.18;76.67
15529;BME280;7866;52.280;9.500;2022-10-22T15:17:11;100219.16;;;17.16;76.74
15529;BME280;7866;52.280;9.500;2022-10-22T15:22:12;100215.22;;;17.12;76.32
15529;BME280;7866;52.280;9.500;2022-10-22T15:27:14;100221.88;;;17.09;76.34
15529;BME280;7866;52.280;9.500;2022-10-22T15:32:18;100222.09;;;17.08;76.58
15529;BME280;7866;52.280;9.500;2022-10-22T15:37:20;100233.56;;;17.03;76.93
15529;BME280;7866;52.280;9.500;2022-10-22T15:42:21;100236.91;;;16.98;77.01
15529;BME280;7866;52.280;9.500;2022-10-22T15:47:25;100239.66;;;16.92;76.99
15529;BME280;7866;52.280;9.500;2022-10-22T15:52:30;100266.06;;;16.83;77.31
15529;BME280;7866;52.280;9.500;2022-10-22T15:57:32;100262.38;;;16.44;79.91
15529;BME280;7866;52.280;9.500;2022-10-22T16:02:36;100270.69;;;16.10;83.03
15529;BME280;7866;52.280;9.500;2022-10-22T16:07:37;100270.69;;;15.90;84.27
15529;BME280;7866;52.280;9.500;2022-10-22T16:12:39;100271.91;;;15.87;84.78
15529;BME280;7866;52.280;9.500;2022-10-22T16:17:43;100275.44;;;15.81;85.55
15529;BME280;7866;52.280;9.500;2022-10-22T16:22:48;100274.41;;;15.82;85.43
15529;BME280;7866;52.280;9.500;2022-10-22T16:27:50;100281.47;;;15.83;85.39
15529;BME280;7866;52.280;9.500;2022-10-22T16:32:53;100289.16;;;15.86;85.01
15529;BME280;7866;52.280;9.500;2022-10-22T16:37:54;100293.28;;;15.75;85.32
15529;BME280;7866;52.280;9.500;2022-10-22T16:42:56;100291.81;;;15.66;85.24
15529;BME280;7866;52.280;9.500;2022-10-22T16:47:59;100297.75;;;15.55;85.72
15529;BME280;7866;52.280;9.500;2022-10-22T16:53:01;100296.28;;;15.46;86.27
15529;BME280;7866;52.280;9.500;2022-10-22T16:58:03;100297.31;;;15.45;86.16
15529;BME280;7866;52.280;9.500;2022-10-22T17:03:06;100291.47;;;15.35;86.51
15529;BME280;7866;52.280;9.500;2022-10-22T17:08:08;100297.91;;;15.34;86.73
15529;BME280;7866;52.280;9.500;2022-10-22T17:13:09;100304.47;;;15.18;86.68
15529;BME280;7866;52.280;9.500;2022-10-22T17:18:12;100305.69;;;15.15;86.99
15529;BME280;7866;52.280;9.500;2022-10-22T17:23:14;100303.59;;;15.11;87.37
15529;BME280;7866;52.280;9.500;2022-10-22T17:28:15;100316.03;;;15.12;87.91
15529;BME280;7866;52.280;9.500;2022-10-22T17:33:18;100316.75;;;15.20;87.40
15529;BME280;7866;52.280;9.500;2022-10-22T17:38:20;100328.63;;;15.39;86.28
15529;BME280;7866;52.280;9.500;2022-10-22T17:43:22;100336.13;;;15.44;85.44
15529;BME280;7866;52.280;9.500;2022-10-22T17:48:25;100330.53;;;15.45;84.87
15529;BME280;7866;52.280;9.500;2022-10-22T17:53:26;100333.06;;;15.53;84.22
15529;BME280;7866;52.280;9.500;2022-10-22T17:58:29;100335.75;;;15.53;84.01
15529;BME280;7866;52.280;9.500;2022-10-22T18:03:32;100339.25;;;15.41;84.13
15529;BME280;7866;52.280;9.500;2022-10-22T18:08:34;100348.78;;;15.43;83.92
15529;BME280;7866;52.280;9.500;2022-10-22T18:13:35;100344.00;;;15.39;83.65
15529;BME280;7866;52.280;9.500;2022-10-22T18:18:39;100347.84;;;15.23;84.22
15529;BME280;7866;52.280;9.500;2022-10-22T18:23:40;100361.91;;;15.12;84.49
15529;BME280;7866;52.280;9.500;2022-10-22T18:28:42;100367.66;;;15.02;85.24
15529;BME280;7866;52.280;9.500;2022-10-22T18:33:46;100371.56;;;14.99;85.62
15529;BME280;7866;52.280;9.500;2022-10-22T18:38:48;100381.25;;;14.87;85.70
15529;BME280;7866;52.280;9.500;2022-10-22T18:43:50;100378.44;;;14.74;86.37
15529;BME280;7866;52.280;9.500;2022-10-22T18:48:54;100379.03;;;14.69;86.53
15529;BME280;7866;52.280;9.500;2022-10-22T18:53:57;100380.78;;;14.56;87.12
15529;BME280;7866;52.280;9.500;2022-10-22T18:58:59;100389.75;;;14.63;87.48
15529;BME280;7866;52.280;9.500;2022-10-22T19:04:02;100385.06;;;14.71;86.88
15529;BME280;7866;52.280;9.500;2022-10-22T19:09:04;100390.44;;;14.71;86.60
15529;BME280;7866;52.280;9.500;2022-10-22T19:14:05;100382.56;;;14.70;86.85
15529;BME280;7866;52.280;9.500;2022-10-22T19:19:09;100384.00;;;14.66;86.79
15529;BME280;7866;52.280;9.500;2022-10-22T19:24:13;100383.91;;;14.59;87.24
15529;BME280;7866;52.280;9.500;2022-10-22T19:29:17;100389.38;;;14.66;86.48
15529;BME280;7866;52.280;9.500;2022-10-22T19:34:20;100399.09;;;14.60;86.26
15529;BME280;7866;52.280;9.500;2022-10-22T19:39:22;100399.41;;;14.50;86.47
15529;BME280;7866;52.280;9.500;2022-10-22T19:44:23;100399.91;;;14.61;86.29
15529;BME280;7866;52.280;9.500;2022-10-22T19:49:27;100397.84;;;14.41;86.01
15529;BME280;7866;52.280;9.500;2022-10-22T19:54:29;100400.00;;;14.31;86.64
15529;BME280;7866;52.280;9.500;2022-10-22T19:59:30;100409.56;;;14.34;86.67
15529;BME280;7866;52.280;9.500;2022-10-22T20:04:34;100405.00;;;14.34;86.26
15529;BME280;7866;52.280;9.500;2022-10-22T20:09:36;100407.47;;;14.29;85.91
15529;BME280;7866;52.280;9.500;2022-10-22T20:14:38;100408.34;;;14.15;86.56
15529;BME280;7866;52.280;9.500;2022-10-22T20:19:42;100416.88;;;14.18;86.55
15529;BME280;7866;52.280;9.500;2022-10-22T20:24:43;100417.56;;;14.05;86.48
15529;BME280;7866;52.280;9.500;2022-10-22T20:29:45;100421.19;;;13.98;87.26
15529;BME280;7866;52.280;9.500;2022-10-22T20:34:48;100413.81;;;13.85;87.61
15529;BME280;7866;52.280;9.500;2022-10-22T20:39:50;100421.63;;;13.65;88.25
15529;BME280;7866;52.280;9.500;2022-10-22T20:44:51;100416.63;;;13.62;89.12
15529;BME280;7866;52.280;9.500;2022-10-22T20:49:55;100426.44;;;13.55;89.47
15529;BME280;7866;52.280;9.500;2022-10-22T20:54:56;100410.88;;;13.50;89.46
15529;BME280;7866;52.280;9.500;2022-10-22T20:59:58;100417.38;;;13.41;90.04
15529;BME280;7866;52.280;9.500;2022-10-22T21:05:01;100406.41;;;13.43;89.85
15529;BME280;7866;52.280;9.500;2022-10-22T21:10:04;100416.91;;;13.38;89.74
15529;BME280;7866;52.280;9.500;2022-10-22T21:15:06;100421.56;;;13.29;89.23
15529;BME280;7866;52.280;9.500;2022-10-22T21:20:10;100418.19;;;13.27;89.88
15529;BME280;7866;52.280;9.500;2022-10-22T21:25:11;100423.44;;;13.20;89.89
15529;BME280;7866;52.280;9.500;2022-10-22T21:30:13;100417.91;;;13.22;90.11
15529;BME280;7866;52.280;9.500;2022-10-22T21:35:16;100419.38;;;13.24;89.76
15529;BME280;7866;52.280;9.500;2022-10-22T21:40:18;100417.00;;;13.29;89.54
15529;BME280;7866;52.280;9.500;2022-10-22T21:45:21;100407.28;;;13.20;89.31
15529;BME280;7866;52.280;9.500;2022-10-22T21:50:24;100407.84;;;13.16;89.55
15529;BME280;7866;52.280;9.500;2022-10-22T21:59:27;100408.06;;;13.14;89.79
15529;BME280;7866;52.280;9.500;2022-10-22T22:04:31;100410.00;;;13.05;89.44
15529;BME280;7866;52.280;9.500;2022-10-22T22:09:33;100406.56;;;12.97;90.02
15529;BME280;7866;52.280;9.500;2022-10-22T22:14:36;100407.75;;;12.94;90.12
15529;BME280;7866;52.280;9.500;2022-10-22T22:19:38;100412.53;;;12.84;90.49
15529;BME280;7866;52.280;9.500;2022-10-22T22:24:40;100413.19;;;12.86;90.65
15529;BME280;7866;52.280;9.500;2022-10-22T22:29:43;100420.53;;;12.92;90.74
15529;BME280;7866;52.280;9.500;2022-10-22T22:34:45;100414.63;;;12.97;90.33
15529;BME280;7866;52.280;9.500;2022-10-22T22:39:46;100402.56;;;13.07;90.13
15529;BME280;7866;52.280;9.500;2022-10-22T22:44:49;100406.38;;;13.13;89.46
15529;BME280;7866;52.280;9.500;2022-10-22T22:49:51;100410.50;;;13.24;88.93
15529;BME280;7866;52.280;9.500;2022-10-22T22:54:53;100412.25;;;13.17;88.58
15529;BME280;7866;52.280;9.500;2022-10-22T22:59:57;100422.28;;;13.23;88.56
15529;BME280;7866;52.280;9.500;2022-10-22T23:04:59;100419.00;;;13.13;88.95
15529;BME280;7866;52.280;9.500;2022-10-22T23:10:00;100424.50;;;12.96;89.47
15529;BME280;7866;52.280;9.500;2022-10-22T23:15:04;100422.50;;;12.98;89.74
15529;BME280;7866;52.280;9.500;2022-10-22T23:20:07;100420.16;;;12.95;90.00
15529;BME280;7866;52.280;9.500;2022-10-22T23:25:09;100414.03;;;12.87;90.52
15529;BME280;7866;52.280;9.500;2022-10-22T23:30:12;100404.94;;;12.88;90.94
15529;BME280;7866;52.280;9.500;2022-10-22T23:35:14;100408.09;;;12.91;90.96
15529;BME280;7866;52.280;9.500;2022-10-22T23:40:15;100416.38;;;12.90;90.43
15529;BME280;7866;52.280;9.500;2022-10-22T23:45:19;100401.91;;;12.91;90.52
15529;BME280;7866;52.280;9.500;2022-10-22T23:50:20;100401.78;;;12.84;90.67
15529;BME280;7866;52.280;9.500;2022-10-22T23:55:22;100387.91;;;12.95;90.85
